createdAt,value
2023-05-14T00:00:21.942Z,241.76
2023-05-14T00:01:21.746Z,240.75
2023-05-14T00:02:21.888Z,239.88
2023-05-14T00:03:21.797Z,240.30
2023-05-14T00:04:21.873Z,240.37
2023-05-14T00:05:21.805Z,240.41
2023-05-14T00:06:21.855Z,240.70
2023-05-14T00:07:21.937Z,241.08
2023-05-14T00:08:21.931Z,243.00
2023-05-14T00:09:21.957Z,243.30
2023-05-14T00:10:22.247Z,244.63
2023-05-14T00:11:22.299Z,245.02
2023-05-14T00:12:22.043Z,245.12
2023-05-14T00:13:22.070Z,244.38
2023-05-14T00:14:22.076Z,244.31
2023-05-14T00:15:22.116Z,244.14
2023-05-14T00:16:22.196Z,243.28
2023-05-14T00:17:22.202Z,242.36
2023-05-14T00:18:22.243Z,240.99
2023-05-14T00:19:22.304Z,239.56
2023-05-14T00:20:22.464Z,236.48
2023-05-14T00:21:22.325Z,234.81
2023-05-14T00:22:22.368Z,235.39
2023-05-14T00:23:22.387Z,235.51
2023-05-14T00:24:22.435Z,233.65
2023-05-14T00:25:22.510Z,230.49
2023-05-14T00:26:22.497Z,228.42
2023-05-14T00:27:22.559Z,229.19
2023-05-14T00:28:22.492Z,231.66
2023-05-14T00:29:22.534Z,231.56
2023-05-14T00:30:22.827Z,232.71
2023-05-14T00:31:22.685Z,230.71
2023-05-14T00:32:22.697Z,231.44
2023-05-14T00:33:22.656Z,229.95
2023-05-14T00:34:22.729Z,229.44
2023-05-14T00:35:22.813Z,227.00
2023-05-14T00:36:22.831Z,227.56
2023-05-14T00:37:22.880Z,225.76
2023-05-14T00:38:22.860Z,226.37
2023-05-14T00:39:22.887Z,228.01
2023-05-14T00:40:23.235Z,226.47
2023-05-14T00:41:22.953Z,226.72
2023-05-14T00:42:22.974Z,227.38
2023-05-14T00:43:23.005Z,227.05
2023-05-14T00:44:23.019Z,226.92
2023-05-14T00:45:23.010Z,226.33
2023-05-14T00:46:23.080Z,226.59
2023-05-14T00:47:23.139Z,229.24
2023-05-14T00:48:23.093Z,229.55
2023-05-14T00:49:23.104Z,230.65
2023-05-14T00:50:23.443Z,233.16
2023-05-14T00:51:23.167Z,235.01
2023-05-14T00:52:23.162Z,236.79
2023-05-14T00:53:23.154Z,238.92
2023-05-14T00:54:23.180Z,240.67
2023-05-14T00:55:23.212Z,241.14
2023-05-14T00:56:23.222Z,239.49
2023-05-14T00:57:23.220Z,239.90
2023-05-14T00:58:23.263Z,238.61
2023-05-14T00:59:23.267Z,239.26
2023-05-14T01:00:23.654Z,237.66
2023-05-14T01:01:23.357Z,233.86
2023-05-14T01:02:23.397Z,233.77
2023-05-14T01:03:23.498Z,236.62
2023-05-14T01:04:23.436Z,238.71
2023-05-14T01:05:23.474Z,240.20
2023-05-14T01:06:23.479Z,242.03
2023-05-14T01:07:23.535Z,243.90
2023-05-14T01:08:23.518Z,243.86
2023-05-14T01:09:23.551Z,244.40
2023-05-14T01:10:23.776Z,241.64
2023-05-14T01:11:23.625Z,240.62
2023-05-14T01:12:23.625Z,241.48
2023-05-14T01:13:23.665Z,241.62
2023-05-14T01:14:23.626Z,241.34
2023-05-14T01:15:23.681Z,239.84
2023-05-14T01:16:23.742Z,239.75
2023-05-14T01:17:23.692Z,238.00
2023-05-14T01:18:23.685Z,236.52
2023-05-14T01:19:23.748Z,236.76
2023-05-14T01:20:23.892Z,233.50
2023-05-14T01:21:23.764Z,231.88
2023-05-14T01:22:23.772Z,232.06
2023-05-14T01:23:23.792Z,231.99
2023-05-14T01:24:23.825Z,234.30
2023-05-14T01:25:23.839Z,235.50
2023-05-14T01:26:23.838Z,235.47
2023-05-14T01:27:23.898Z,235.69
2023-05-14T01:28:23.909Z,234.27
2023-05-14T01:29:23.955Z,233.92
2023-05-14T01:30:24.163Z,233.10
2023-05-14T01:31:24.022Z,233.19
2023-05-14T01:32:24.084Z,234.92
2023-05-14T01:33:24.029Z,232.83
2023-05-14T01:34:24.047Z,231.18
2023-05-14T01:35:24.067Z,231.65
2023-05-14T01:36:24.066Z,232.12
2023-05-14T01:37:24.046Z,232.49
2023-05-14T01:38:24.081Z,233.16
2023-05-14T01:39:24.093Z,232.74
2023-05-14T01:40:24.404Z,230.78
2023-05-14T01:41:24.162Z,232.07
2023-05-14T01:42:24.218Z,234.59
2023-05-14T01:43:24.323Z,235.68
2023-05-14T01:44:24.354Z,236.49
2023-05-14T01:45:24.288Z,236.65
2023-05-14T01:46:24.348Z,237.88
2023-05-14T01:47:24.348Z,238.14
2023-05-14T01:48:24.333Z,238.79
2023-05-14T01:49:24.408Z,239.53
2023-05-14T01:50:24.588Z,239.31
2023-05-14T01:51:24.516Z,240.50
2023-05-14T01:52:24.468Z,241.08
2023-05-14T01:53:24.517Z,241.26
2023-05-14T01:54:24.525Z,239.68
2023-05-14T01:55:24.585Z,236.36
2023-05-14T01:56:24.563Z,233.43
2023-05-14T01:57:24.651Z,233.03
2023-05-14T01:58:24.627Z,230.58
2023-05-14T01:59:24.633Z,228.96
2023-05-14T02:00:24.938Z,228.29
2023-05-14T02:01:24.739Z,227.52
2023-05-14T02:02:24.794Z,227.34
2023-05-14T02:03:24.798Z,228.53
2023-05-14T02:04:24.849Z,228.57
2023-05-14T02:05:24.835Z,230.20
2023-05-14T02:06:24.845Z,232.34
2023-05-14T02:07:24.850Z,233.86
2023-05-14T02:08:24.889Z,234.92
2023-05-14T02:09:24.973Z,236.06
2023-05-14T02:10:25.174Z,235.79
2023-05-14T02:11:25.045Z,235.37
2023-05-14T02:12:25.053Z,234.58
2023-05-14T02:13:25.091Z,233.53
2023-05-14T02:14:25.101Z,232.92
2023-05-14T02:15:25.134Z,231.53
2023-05-14T02:16:25.272Z,230.31
2023-05-14T02:17:25.244Z,229.84
2023-05-14T02:18:25.278Z,229.98
2023-05-14T02:19:25.285Z,228.44
2023-05-14T02:20:25.555Z,228.12
2023-05-14T02:21:25.403Z,228.05
2023-05-14T02:22:25.426Z,228.60
2023-05-14T02:23:31.278Z,229.68
2023-05-14T02:24:26.456Z,229.69
2023-05-14T02:25:25.435Z,229.19
2023-05-14T02:26:25.462Z,229.05
2023-05-14T02:27:25.435Z,229.75
2023-05-14T02:28:25.449Z,228.98
2023-05-14T02:29:25.422Z,229.26
2023-05-14T02:30:25.611Z,228.70
2023-05-14T02:31:25.452Z,228.34
2023-05-14T02:32:25.519Z,227.34
2023-05-14T02:33:25.414Z,227.52
2023-05-14T02:34:25.406Z,226.35
2023-05-14T02:35:25.404Z,225.61
2023-05-14T02:36:25.442Z,225.65
2023-05-14T02:37:25.469Z,225.19
2023-05-14T02:38:25.488Z,225.69
2023-05-14T02:39:25.516Z,221.64
2023-05-14T02:40:25.737Z,220.93
2023-05-14T02:41:25.532Z,219.68
2023-05-14T02:42:25.579Z,218.55
2023-05-14T02:43:25.584Z,218.73
2023-05-14T02:44:25.661Z,216.76
2023-05-14T02:45:25.672Z,217.29
2023-05-14T02:46:25.759Z,218.78
2023-05-14T02:47:25.862Z,216.06
2023-05-14T02:48:25.752Z,216.53
2023-05-14T02:49:25.802Z,218.75
2023-05-14T02:50:25.991Z,220.88
2023-05-14T02:51:25.794Z,221.57
2023-05-14T02:52:25.816Z,222.09
2023-05-14T02:53:25.835Z,221.58
2023-05-14T02:54:25.849Z,223.33
2023-05-14T02:55:25.865Z,222.17
2023-05-14T02:56:25.874Z,222.12
2023-05-14T02:57:25.913Z,219.20
2023-05-14T02:58:28.286Z,218.97
2023-05-14T02:59:25.956Z,220.29
2023-05-14T03:00:26.152Z,223.26
2023-05-14T03:01:25.891Z,225.10
2023-05-14T03:02:26.007Z,225.90
2023-05-14T03:03:25.874Z,226.69
2023-05-14T03:04:25.896Z,226.15
2023-05-14T03:05:25.891Z,226.45
2023-05-14T03:06:25.867Z,227.83
2023-05-14T03:07:25.845Z,227.67
2023-05-14T03:08:25.855Z,228.58
2023-05-14T03:09:25.919Z,227.78
2023-05-14T03:10:26.111Z,230.50
2023-05-14T03:11:25.891Z,228.51
2023-05-14T03:12:25.893Z,226.43
2023-05-14T03:13:25.847Z,225.04
2023-05-14T03:14:25.846Z,225.66
2023-05-14T03:15:25.859Z,226.60
2023-05-14T03:16:25.843Z,227.11
2023-05-14T03:17:25.833Z,226.84
2023-05-14T03:18:25.900Z,225.61
2023-05-14T03:19:25.825Z,226.82
2023-05-14T03:20:25.894Z,226.25
2023-05-14T03:21:25.782Z,227.10
2023-05-14T03:22:25.769Z,226.93
2023-05-14T03:23:25.798Z,228.87
2023-05-14T03:24:25.756Z,229.75
2023-05-14T03:25:25.732Z,233.18
2023-05-14T03:26:25.741Z,234.40
2023-05-14T03:27:25.734Z,236.28
2023-05-14T03:28:25.733Z,233.96
2023-05-14T03:29:25.739Z,232.13
2023-05-14T03:30:26.006Z,232.32
2023-05-14T03:31:25.776Z,233.38
2023-05-14T03:32:25.675Z,233.04
2023-05-14T03:33:25.689Z,232.02
2023-05-14T03:34:25.666Z,231.37
2023-05-14T03:35:25.679Z,230.36
2023-05-14T03:36:25.687Z,229.98
2023-05-14T03:37:25.647Z,229.50
2023-05-14T03:38:25.631Z,229.41
2023-05-14T03:39:25.657Z,228.73
2023-05-14T03:40:25.819Z,225.69
2023-05-14T03:41:25.632Z,224.48
2023-05-14T03:42:25.626Z,222.62
2023-05-14T03:43:25.629Z,222.76
2023-05-14T03:44:25.615Z,222.96
2023-05-14T03:45:25.595Z,223.21
2023-05-14T03:46:25.588Z,222.75
2023-05-14T03:47:25.642Z,221.73
2023-05-14T03:48:25.666Z,221.92
2023-05-14T03:49:25.590Z,222.01
2023-05-14T03:50:25.812Z,222.26
2023-05-14T03:51:25.556Z,224.84
2023-05-14T03:52:25.573Z,229.79
2023-05-14T03:53:25.563Z,230.27
2023-05-14T03:54:25.581Z,230.58
2023-05-14T03:55:25.584Z,228.63
2023-05-14T03:56:25.617Z,224.45
2023-05-14T03:57:25.659Z,222.50
2023-05-14T03:58:25.669Z,220.92
2023-05-14T03:59:25.769Z,220.53
2023-05-14T04:00:26.266Z,218.88
2023-05-14T04:01:25.822Z,218.99
2023-05-14T04:02:25.995Z,217.70
2023-05-14T04:03:26.048Z,217.17
2023-05-14T04:04:25.971Z,217.02
2023-05-14T04:05:25.917Z,219.53
2023-05-14T04:06:25.951Z,216.48
2023-05-14T04:07:26.018Z,216.53
2023-05-14T04:08:26.057Z,218.38
2023-05-14T04:09:26.035Z,218.75
2023-05-14T04:10:26.076Z,218.12
2023-05-14T04:11:26.095Z,217.75
2023-05-14T04:12:26.132Z,215.72
2023-05-14T04:13:26.210Z,214.80
2023-05-14T04:14:26.239Z,214.78
2023-05-14T04:15:26.215Z,216.80
2023-05-14T04:16:26.291Z,217.46
2023-05-14T04:17:26.476Z,216.70
2023-05-14T04:18:26.418Z,214.85
2023-05-14T04:19:26.353Z,215.51
2023-05-14T04:20:26.398Z,215.17
2023-05-14T04:21:26.404Z,215.93
2023-05-14T04:22:26.410Z,211.80
2023-05-14T04:23:26.429Z,212.04
2023-05-14T04:24:26.473Z,213.21
2023-05-14T04:25:26.473Z,214.97
2023-05-14T04:26:26.527Z,216.47
2023-05-14T04:27:26.518Z,216.98
2023-05-14T04:28:26.562Z,219.15
2023-05-14T04:29:26.567Z,219.01
2023-05-14T04:30:26.620Z,218.26
2023-05-14T04:31:26.642Z,217.16
2023-05-14T04:32:26.643Z,217.44
2023-05-14T04:33:26.657Z,220.16
2023-05-14T04:34:26.707Z,219.71
2023-05-14T04:35:26.752Z,216.62
2023-05-14T04:36:26.749Z,215.08
2023-05-14T04:37:26.789Z,214.47
2023-05-14T04:38:26.825Z,214.16
2023-05-14T04:39:26.845Z,214.13
2023-05-14T04:40:27.176Z,213.86
2023-05-14T04:41:26.927Z,217.74
2023-05-14T04:42:26.932Z,220.65
2023-05-14T04:43:27.010Z,224.93
2023-05-14T04:44:27.061Z,227.03
2023-05-14T04:45:27.044Z,228.95
2023-05-14T04:46:27.175Z,231.30
2023-05-14T04:47:27.158Z,230.97
2023-05-14T04:48:27.137Z,232.50
2023-05-14T04:49:27.136Z,229.59
2023-05-14T04:50:27.193Z,225.19
2023-05-14T04:51:27.222Z,222.90
2023-05-14T04:52:27.288Z,222.03
2023-05-14T04:53:27.322Z,220.29
2023-05-14T04:54:27.469Z,214.94
2023-05-14T04:55:27.438Z,213.30
2023-05-14T04:56:27.437Z,211.38
2023-05-14T04:57:27.431Z,213.03
2023-05-14T04:58:27.436Z,214.21
2023-05-14T04:59:27.438Z,215.36
2023-05-14T05:00:27.534Z,215.15
2023-05-14T05:01:27.606Z,215.43
2023-05-14T05:02:27.663Z,215.67
2023-05-14T05:03:27.656Z,216.50
2023-05-14T05:04:27.600Z,216.98
2023-05-14T05:05:27.658Z,218.56
2023-05-14T05:06:27.648Z,219.48
2023-05-14T05:07:27.704Z,221.30
2023-05-14T05:08:27.674Z,221.70
2023-05-14T05:09:27.694Z,222.94
2023-05-14T05:10:27.745Z,221.98
2023-05-14T05:11:27.794Z,221.42
2023-05-14T05:12:27.845Z,223.05
2023-05-14T05:13:27.843Z,224.39
2023-05-14T05:14:27.870Z,218.97
2023-05-14T05:15:27.907Z,220.98
2023-05-14T05:16:27.979Z,224.48
2023-05-14T05:17:27.938Z,228.49
2023-05-14T05:18:27.996Z,226.58
2023-05-14T05:19:39.545Z,225.10
2023-05-14T05:20:28.936Z,225.19
2023-05-14T05:21:28.005Z,225.40
2023-05-14T05:22:27.922Z,225.64
2023-05-14T05:23:27.898Z,225.98
2023-05-14T05:24:27.911Z,226.39
2023-05-14T05:25:27.935Z,225.71
2023-05-14T05:26:27.891Z,223.83
2023-05-14T05:27:27.913Z,224.46
2023-05-14T05:28:27.888Z,222.56
2023-05-14T05:29:27.899Z,221.64
2023-05-14T05:30:27.905Z,218.30
2023-05-14T05:31:27.925Z,219.51
2023-05-14T05:32:27.927Z,222.59
2023-05-14T05:33:27.873Z,225.26
2023-05-14T05:34:27.906Z,222.64
2023-05-14T05:35:27.871Z,220.82
2023-05-14T05:36:27.832Z,221.67
2023-05-14T05:37:27.881Z,219.34
2023-05-14T05:38:27.912Z,220.90
2023-05-14T05:39:27.919Z,223.34
2023-05-14T05:40:27.984Z,222.49
2023-05-14T05:41:28.015Z,222.27
2023-05-14T05:42:28.052Z,222.05
2023-05-14T05:43:28.136Z,221.08
2023-05-14T05:44:28.196Z,223.00
2023-05-14T05:45:28.191Z,224.90
2023-05-14T05:46:28.293Z,223.24
2023-05-14T05:47:28.380Z,222.81
2023-05-14T05:48:28.343Z,222.16
2023-05-14T05:49:28.376Z,221.35
2023-05-14T05:50:28.412Z,220.38
2023-05-14T05:51:28.442Z,218.07
2023-05-14T05:52:28.519Z,217.84
2023-05-14T05:53:28.567Z,219.53
2023-05-14T05:54:28.569Z,221.04
2023-05-14T05:55:28.598Z,220.53
2023-05-14T05:56:28.684Z,220.73
2023-05-14T05:57:28.660Z,222.27
2023-05-14T05:58:28.653Z,223.34
2023-05-14T05:59:28.669Z,221.08
2023-05-14T06:00:28.714Z,222.03
2023-05-14T06:01:28.750Z,221.35
2023-05-14T06:02:28.831Z,221.16
2023-05-14T06:03:28.828Z,221.79
2023-05-14T06:04:28.874Z,220.98
2023-05-14T06:05:28.963Z,224.07
2023-05-14T06:06:28.955Z,223.41
2023-05-14T06:07:28.914Z,221.15
2023-05-14T06:08:28.961Z,219.72
2023-05-14T06:09:29.017Z,216.96
2023-05-14T06:10:29.085Z,207.48
2023-05-14T06:11:29.042Z,201.43
2023-05-14T06:12:29.084Z,199.73
2023-05-14T06:13:29.135Z,204.22
2023-05-14T06:14:29.181Z,204.70
2023-05-14T06:15:29.205Z,204.95
2023-05-14T06:16:29.270Z,208.55
2023-05-14T06:17:29.296Z,206.38
2023-05-14T06:18:29.328Z,203.26
2023-05-14T06:19:29.345Z,200.33
2023-05-14T06:20:29.414Z,194.89
2023-05-14T06:21:29.421Z,189.20
2023-05-14T06:22:29.449Z,187.69
2023-05-14T06:23:29.438Z,187.39
2023-05-14T06:24:29.436Z,185.42
2023-05-14T06:25:29.484Z,189.21
2023-05-14T06:26:29.517Z,189.38
2023-05-14T06:27:29.546Z,185.56
2023-05-14T06:28:29.542Z,182.52
2023-05-14T06:29:29.587Z,181.33
2023-05-14T06:30:29.572Z,182.55
2023-05-14T06:31:29.641Z,181.58
2023-05-14T06:32:29.663Z,177.95
2023-05-14T06:33:29.707Z,177.59
2023-05-14T06:34:29.667Z,176.32
2023-05-14T06:35:29.705Z,177.96
2023-05-14T06:36:29.754Z,179.22
2023-05-14T06:37:29.701Z,172.84
2023-05-14T06:38:29.716Z,169.67
2023-05-14T06:39:29.729Z,168.40
2023-05-14T06:40:29.769Z,167.68
2023-05-14T06:41:29.780Z,164.05
2023-05-14T06:42:29.818Z,160.82
2023-05-14T06:43:29.866Z,158.54
2023-05-14T06:44:29.920Z,159.06
2023-05-14T06:45:31.174Z,158.58
2023-05-14T06:46:29.969Z,158.71
2023-05-14T06:47:29.978Z,154.69
2023-05-14T06:48:30.104Z,155.71
2023-05-14T06:49:30.041Z,156.50
2023-05-14T06:50:30.070Z,159.30
2023-05-14T06:51:30.102Z,161.85
2023-05-14T06:52:30.194Z,161.32
2023-05-14T06:53:30.237Z,159.91
2023-05-14T06:54:30.243Z,157.44
2023-05-14T06:55:30.299Z,152.30
2023-05-14T06:56:30.346Z,147.13
2023-05-14T06:57:30.361Z,148.25
2023-05-14T06:58:30.370Z,150.05
2023-05-14T06:59:30.449Z,156.67
2023-05-14T07:00:30.406Z,158.68
2023-05-14T07:01:30.594Z,150.84
2023-05-14T07:02:30.607Z,151.07
2023-05-14T07:03:30.543Z,149.70
2023-05-14T07:04:30.605Z,151.30
2023-05-14T07:05:30.636Z,149.00
2023-05-14T07:06:30.660Z,151.64
2023-05-14T07:07:30.667Z,156.23
2023-05-14T07:08:30.654Z,160.04
2023-05-14T07:09:30.697Z,161.43
2023-05-14T07:10:30.743Z,158.39
2023-05-14T07:11:30.766Z,158.46
2023-05-14T07:12:30.760Z,154.16
2023-05-14T07:13:30.758Z,154.01
2023-05-14T07:14:30.805Z,155.60
2023-05-14T07:15:30.860Z,154.55
2023-05-14T07:16:30.891Z,157.54
2023-05-14T07:17:30.986Z,159.72
2023-05-14T07:18:30.930Z,164.53
2023-05-14T07:19:30.979Z,158.00
2023-05-14T07:20:31.000Z,150.29
2023-05-14T07:21:31.046Z,149.44
2023-05-14T07:22:31.066Z,148.70
2023-05-14T07:23:31.132Z,146.92
2023-05-14T07:24:31.173Z,147.53
2023-05-14T07:25:31.190Z,150.52
2023-05-14T07:26:31.308Z,153.41
2023-05-14T07:27:31.254Z,155.74
2023-05-14T07:28:31.299Z,159.56
2023-05-14T07:29:31.355Z,155.79
2023-05-14T07:30:31.387Z,159.25
2023-05-14T07:31:31.485Z,157.84
2023-05-14T07:32:31.494Z,156.67
2023-05-14T07:33:31.489Z,155.31
2023-05-14T07:34:31.478Z,155.02
2023-05-14T07:35:31.560Z,153.68
2023-05-14T07:36:31.555Z,150.84
2023-05-14T07:37:31.619Z,149.96
2023-05-14T07:38:31.685Z,150.78
2023-05-14T07:39:31.675Z,150.91
2023-05-14T07:40:31.706Z,152.39
2023-05-14T07:41:31.712Z,146.42
2023-05-14T07:42:36.769Z,143.59
2023-05-14T07:43:32.732Z,142.75
2023-05-14T07:44:31.716Z,139.81
2023-05-14T07:45:31.685Z,136.77
2023-05-14T07:46:31.741Z,134.76
2023-05-14T07:47:31.742Z,131.21
2023-05-14T07:48:31.719Z,129.89
2023-05-14T07:49:31.686Z,128.85
2023-05-14T07:50:31.690Z,129.70
2023-05-14T07:51:31.674Z,128.44
2023-05-14T07:52:31.626Z,123.87
2023-05-14T07:53:31.677Z,126.85
2023-05-14T07:54:31.680Z,126.68
2023-05-14T07:55:31.645Z,130.61
2023-05-14T07:56:31.645Z,132.87
2023-05-14T07:57:31.628Z,128.12
2023-05-14T07:58:31.655Z,130.59
2023-05-14T07:59:31.721Z,131.65
2023-05-14T08:00:31.768Z,130.01
2023-05-14T08:01:31.815Z,118.37
2023-05-14T08:02:31.959Z,114.40
2023-05-14T08:03:31.966Z,112.34
2023-05-14T08:04:31.997Z,107.23
2023-05-14T08:05:32.004Z,110.44
2023-05-14T08:06:31.997Z,110.00
2023-05-14T08:07:32.020Z,102.74
2023-05-14T08:08:32.064Z,102.95
2023-05-14T08:09:32.118Z,89.41
2023-05-14T08:10:32.239Z,83.84
2023-05-14T08:11:32.233Z,88.51
2023-05-14T08:12:32.247Z,88.78
2023-05-14T08:13:32.244Z,90.34
2023-05-14T08:14:32.301Z,90.42
2023-05-14T08:15:32.309Z,80.65
2023-05-14T08:16:32.350Z,82.31
2023-05-14T08:17:32.393Z,88.93
2023-05-14T08:18:32.413Z,86.93
2023-05-14T08:19:32.425Z,71.46
2023-05-14T08:20:32.452Z,57.61
2023-05-14T08:21:32.507Z,56.12
2023-05-14T08:22:32.502Z,59.98
2023-05-14T08:23:32.536Z,63.47
2023-05-14T08:24:32.586Z,69.75
2023-05-14T08:25:32.585Z,71.81
2023-05-14T08:26:32.592Z,75.21
2023-05-14T08:27:32.657Z,71.84
2023-05-14T08:28:32.637Z,72.97
2023-05-14T08:29:32.715Z,75.31
2023-05-14T08:30:32.770Z,82.27
2023-05-14T08:31:32.832Z,82.66
2023-05-14T08:32:32.880Z,84.47
2023-05-14T08:33:32.801Z,80.15
2023-05-14T08:34:32.859Z,81.74
2023-05-14T08:35:32.826Z,71.76
2023-05-14T08:36:32.882Z,64.15
2023-05-14T08:37:32.867Z,51.97
2023-05-14T08:38:32.921Z,34.51
2023-05-14T08:39:32.929Z,25.75
2023-05-14T08:40:32.966Z,22.54
2023-05-14T08:41:33.005Z,31.61
2023-05-14T08:42:33.008Z,33.13
2023-05-14T08:43:33.040Z,36.96
2023-05-14T08:44:33.151Z,31.44
2023-05-14T08:45:33.116Z,36.96
2023-05-14T08:46:33.148Z,30.32
2023-05-14T08:47:33.193Z,18.42
2023-05-14T08:48:33.311Z,23.21
2023-05-14T08:49:33.283Z,17.80
2023-05-14T08:50:33.271Z,20.08
2023-05-14T08:51:33.281Z,22.26
2023-05-14T08:52:33.340Z,25.00
2023-05-14T08:53:33.383Z,25.96
2023-05-14T08:54:33.430Z,28.34
2023-05-14T08:55:33.458Z,34.47
2023-05-14T08:56:33.479Z,39.03
2023-05-14T08:57:33.477Z,44.29
2023-05-14T08:58:33.514Z,53.09
2023-05-14T08:59:33.547Z,57.98
2023-05-14T09:00:33.617Z,63.49
2023-05-14T09:01:33.658Z,59.14
2023-05-14T09:02:33.663Z,46.39
2023-05-14T09:03:33.681Z,41.21
2023-05-14T09:04:33.733Z,38.67
2023-05-14T09:05:33.732Z,47.76
2023-05-14T09:06:33.782Z,48.61
2023-05-14T09:07:33.808Z,50.48
2023-05-14T09:08:33.898Z,56.84
2023-05-14T09:09:33.861Z,54.48
2023-05-14T09:10:33.953Z,38.04
2023-05-14T09:11:33.946Z,33.74
2023-05-14T09:12:33.974Z,23.54
2023-05-14T09:13:34.005Z,20.10
2023-05-14T09:14:34.080Z,25.00
2023-05-14T09:15:34.060Z,23.37
2023-05-14T09:16:34.116Z,22.80
2023-05-14T09:17:34.156Z,22.17
2023-05-14T09:18:34.109Z,20.62
2023-05-14T09:19:34.160Z,21.35
2023-05-14T09:20:34.163Z,29.06
2023-05-14T09:21:34.209Z,39.85
2023-05-14T09:22:34.245Z,53.25
2023-05-14T09:23:34.279Z,61.28
2023-05-14T09:24:34.423Z,66.80
2023-05-14T09:25:34.361Z,76.67
2023-05-14T09:26:34.369Z,81.66
2023-05-14T09:27:34.443Z,88.99
2023-05-14T09:28:34.530Z,87.11
2023-05-14T09:29:34.501Z,77.43
2023-05-14T09:30:34.513Z,82.74
2023-05-14T09:31:34.576Z,86.89
2023-05-14T09:32:34.664Z,90.76
2023-05-14T09:33:34.557Z,81.83
2023-05-14T09:34:34.651Z,73.39
2023-05-14T09:35:34.673Z,71.49
2023-05-14T09:36:34.705Z,61.99
2023-05-14T09:37:34.698Z,58.73
2023-05-14T09:38:34.785Z,58.40
2023-05-14T09:39:34.755Z,57.52
2023-05-14T09:40:34.760Z,55.84
2023-05-14T09:41:34.804Z,53.42
2023-05-14T09:42:34.921Z,52.20
2023-05-14T09:43:34.870Z,46.33
2023-05-14T09:44:34.931Z,40.26
2023-05-14T09:45:34.944Z,41.63
2023-05-14T09:46:34.977Z,43.78
2023-05-14T09:47:35.110Z,52.93
2023-05-14T09:48:35.115Z,53.98
2023-05-14T09:49:35.097Z,54.42
2023-05-14T09:50:35.111Z,52.47
2023-05-14T09:51:35.131Z,48.50
2023-05-14T09:52:35.184Z,55.57
2023-05-14T09:53:35.187Z,52.60
2023-05-14T09:54:35.194Z,53.74
2023-05-14T09:55:35.246Z,58.53
2023-05-14T09:56:35.256Z,56.62
2023-05-14T09:57:35.326Z,59.16
2023-05-14T09:58:35.374Z,58.76
2023-05-14T09:59:35.429Z,55.32
2023-05-14T10:00:35.515Z,59.11
2023-05-14T10:01:35.498Z,62.51
2023-05-14T10:02:35.589Z,64.17
2023-05-14T10:03:35.576Z,61.80
2023-05-14T10:04:35.624Z,59.88
2023-05-14T10:06:11.009Z,25.00
2023-05-14T10:07:11.008Z,25.00
2023-05-14T10:08:11.019Z,25.00
2023-05-14T10:09:10.984Z,25.00
2023-05-14T10:10:10.979Z,25.00
2023-05-14T10:11:10.967Z,31.95
2023-05-14T10:12:10.977Z,38.56
2023-05-14T10:13:10.981Z,63.94
2023-05-14T10:14:10.951Z,27.87
2023-05-14T10:15:10.963Z,51.31
2023-05-14T10:16:10.958Z,69.11
2023-05-14T10:17:10.981Z,27.38
2023-05-14T10:18:11.019Z,42.29
2023-05-14T10:19:10.969Z,54.34
2023-05-14T10:20:10.952Z,74.75
2023-05-14T10:21:10.917Z,41.35
2023-05-14T10:22:10.917Z,6.57
2023-05-14T10:23:10.911Z,24.99
2023-05-14T10:24:10.875Z,20.27
2023-05-14T10:25:10.914Z,16.21
2023-05-14T10:26:10.867Z,21.67
2023-05-14T10:27:10.869Z,0.00
2023-05-14T10:28:10.861Z,0.00
2023-05-14T10:29:10.858Z,32.84
2023-05-14T10:30:10.858Z,14.62
2023-05-14T10:31:10.956Z,0.00
2023-05-14T10:32:11.207Z,22.55
2023-05-14T10:33:10.849Z,45.43
2023-05-14T10:34:10.810Z,27.23
2023-05-14T10:35:10.804Z,32.21
2023-05-14T10:36:10.832Z,30.14
2023-05-14T10:37:10.793Z,57.36
2023-05-14T10:38:10.789Z,18.13
2023-05-14T10:39:10.814Z,50.05
2023-05-14T10:40:10.812Z,61.65
2023-05-14T10:41:10.732Z,58.31
2023-05-14T10:42:10.753Z,61.47
2023-05-14T10:43:10.772Z,120.19
2023-05-14T10:44:10.745Z,123.10
2023-05-14T10:45:10.735Z,144.35
2023-05-14T10:46:10.762Z,185.71
2023-05-14T10:47:10.760Z,217.42
2023-05-14T10:48:10.864Z,196.97
2023-05-14T10:49:10.814Z,207.94
2023-05-14T10:50:10.862Z,239.58
2023-05-14T10:51:10.927Z,243.39
2023-05-14T10:52:10.929Z,187.95
2023-05-14T10:53:11.003Z,149.78
2023-05-14T10:54:11.036Z,106.78
2023-05-14T10:55:11.037Z,44.89
2023-05-14T10:56:11.111Z,22.94
2023-05-14T10:57:11.119Z,25.00
2023-05-14T10:58:11.124Z,59.00
2023-05-14T10:59:11.162Z,70.50
2023-05-14T11:00:11.187Z,88.15
2023-05-14T11:01:11.256Z,70.53
2023-05-14T11:02:11.359Z,74.71
2023-05-14T11:03:11.388Z,24.58
2023-05-14T11:04:11.473Z,30.91
2023-05-14T11:05:11.417Z,37.91
2023-05-14T11:06:11.418Z,50.18
2023-05-14T11:07:11.467Z,75.32
2023-05-14T11:08:11.456Z,97.81
2023-05-14T11:09:11.498Z,80.43
2023-05-14T11:10:11.521Z,0.00
2023-05-14T11:11:11.563Z,0.00
2023-05-14T11:12:11.562Z,20.66
2023-05-14T11:13:11.603Z,23.60
2023-05-14T11:14:11.648Z,26.80
2023-05-14T11:15:11.649Z,23.88
2023-05-14T11:16:22.443Z,23.84
2023-05-14T11:17:12.758Z,17.81
2023-05-14T11:18:11.708Z,28.85
2023-05-14T11:19:11.773Z,43.06
2023-05-14T11:20:11.710Z,33.87
2023-05-14T11:21:11.638Z,0.29
2023-05-14T11:22:11.614Z,5.87
2023-05-14T11:23:11.639Z,38.76
2023-05-14T11:24:11.635Z,31.23
2023-05-14T11:25:11.622Z,33.01
2023-05-14T11:26:11.644Z,39.93
2023-05-14T11:27:11.636Z,43.22
2023-05-14T11:28:11.633Z,64.91
2023-05-14T11:29:11.571Z,86.42
2023-05-14T11:30:11.642Z,107.59
2023-05-14T11:31:11.692Z,155.76
2023-05-14T11:32:11.689Z,140.78
2023-05-14T11:33:11.773Z,144.84
2023-05-14T11:34:11.705Z,138.70
2023-05-14T11:35:11.725Z,121.96
2023-05-14T11:36:11.789Z,118.35
2023-05-14T11:37:11.838Z,107.96
2023-05-14T11:38:11.834Z,112.42
2023-05-14T11:39:11.851Z,125.14
2023-05-14T11:40:11.905Z,124.07
2023-05-14T11:41:11.968Z,152.11
2023-05-14T11:42:11.968Z,194.76
2023-05-14T11:43:11.997Z,188.67
2023-05-14T11:44:12.049Z,180.39
2023-05-14T11:45:12.051Z,158.80
2023-05-14T11:46:12.133Z,153.28
2023-05-14T11:47:12.159Z,148.69
2023-05-14T11:48:12.121Z,134.55
2023-05-14T11:49:12.137Z,150.02
2023-05-14T11:50:12.194Z,131.94
2023-05-14T11:51:12.146Z,87.55
2023-05-14T11:52:12.185Z,58.01
2023-05-14T11:53:12.240Z,55.19
2023-05-14T11:54:12.309Z,78.39
2023-05-14T11:55:12.356Z,112.16
2023-05-14T11:56:12.398Z,132.93
2023-05-14T11:57:12.438Z,174.16
2023-05-14T11:58:12.461Z,191.35
2023-05-14T11:59:12.462Z,151.35
2023-05-14T12:00:12.543Z,178.22
2023-05-14T12:01:12.581Z,201.94
2023-05-14T12:02:12.649Z,211.13
2023-05-14T12:03:12.702Z,195.90
2023-05-14T12:04:12.665Z,180.94
2023-05-14T12:05:12.676Z,209.72
2023-05-14T12:06:12.679Z,187.82
2023-05-14T12:07:12.744Z,147.22
2023-05-14T12:08:12.764Z,182.48
2023-05-14T12:09:12.772Z,262.88
2023-05-14T12:10:12.875Z,273.57
2023-05-14T12:11:12.893Z,266.73
2023-05-14T12:12:12.973Z,246.21
2023-05-14T12:13:12.935Z,334.36
2023-05-14T12:14:12.984Z,373.32
2023-05-14T12:15:13.040Z,375.53
2023-05-14T12:16:13.071Z,354.25
2023-05-14T12:17:13.069Z,354.38
2023-05-14T12:18:23.543Z,362.38
2023-05-14T12:19:14.144Z,348.13
2023-05-14T12:20:13.087Z,337.10
2023-05-14T12:21:13.081Z,338.62
2023-05-14T12:22:13.067Z,357.39
2023-05-14T12:23:13.058Z,359.59
2023-05-14T12:24:13.100Z,340.40
2023-05-14T12:25:13.042Z,320.00
2023-05-14T12:26:13.034Z,302.87
2023-05-14T12:27:13.013Z,301.85
2023-05-14T12:28:13.034Z,292.27
2023-05-14T12:29:13.047Z,273.37
2023-05-14T12:30:21.410Z,259.26
2023-05-14T12:31:14.148Z,259.61
2023-05-14T12:32:13.048Z,263.02
2023-05-14T12:33:13.029Z,267.15
2023-05-14T12:34:12.988Z,273.60
2023-05-14T12:35:12.999Z,281.54